createdAt,value
2022-09-01T00:00:56.037Z,98773.42
2022-09-01T00:03:45.795Z,98778.01
2022-09-01T00:06:37.608Z,98765.73
2022-09-01T00:09:13.842Z,98761.38
2022-09-01T00:12:03.912Z,98757.40
2022-09-01T00:14:44.232Z,98757.79
2022-09-01T00:17:12.458Z,98757.27
2022-09-01T00:19:52.906Z,98762.69
2022-09-01T00:23:00.673Z,98758.05
2022-09-01T00:25:42.736Z,98753.83
2022-09-01T00:28:12.700Z,98755.06
2022-09-01T00:30:58.872Z,98753.67
2022-09-01T00:33:31.212Z,98748.08
2022-09-01T00:36:01.888Z,98742.94
2022-09-01T00:38:36.367Z,98743.29
2022-09-01T00:41:16.878Z,98742.79
2022-09-01T00:43:54.339Z,98747.64
2022-09-01T00:46:50.962Z,98747.92
2022-09-01T00:49:47.628Z,98745.02
2022-09-01T00:52:32.904Z,98746.88
2022-09-01T00:55:29.256Z,98750.34
2022-09-01T00:58:19.547Z,98748.73
2022-09-01T01:00:52.446Z,98750.81
2022-09-01T01:03:26.126Z,98746.22
2022-09-01T01:06:08.037Z,98749.73
2022-09-01T01:08:38.629Z,98750.16
2022-09-01T01:11:18.806Z,98753.77
2022-09-01T01:14:12.098Z,98746.13
2022-09-01T01:16:47.159Z,98754.34
2022-09-01T01:20:01.789Z,98750.30
2022-09-01T01:23:22.157Z,98750.90
2022-09-01T01:26:08.546Z,98752.55
2022-09-01T01:29:01.784Z,98755.10
2022-09-01T01:31:35.419Z,98750.67
2022-09-01T01:34:13.988Z,98746.84
2022-09-01T01:36:59.964Z,98745.45
2022-09-01T01:39:50.759Z,98745.37
2022-09-01T01:42:31.248Z,98742.27
2022-09-01T01:45:28.148Z,98741.66
2022-09-01T01:47:58.051Z,98742.48
2022-09-01T01:50:39.338Z,98737.11
2022-09-01T01:53:17.376Z,98739.96
2022-09-01T01:55:58.544Z,98738.59
2022-09-01T01:58:56.278Z,98741.57
2022-09-01T02:01:29.408Z,98735.17
2022-09-01T02:04:11.315Z,98731.15
2022-09-01T02:06:46.349Z,98735.23
2022-09-01T02:09:28.699Z,98732.08
2022-09-01T02:12:01.158Z,98734.27
2022-09-01T02:14:50.436Z,98730.50
2022-09-01T02:17:21.300Z,98729.27
2022-09-01T02:19:49.492Z,98727.31
2022-09-01T02:22:31.834Z,98727.66
2022-09-01T02:25:21.444Z,98728.98
2022-09-01T02:27:56.863Z,98724.03
2022-09-01T02:30:37.275Z,98721.95
2022-09-01T02:33:37.350Z,98717.55
2022-09-01T02:36:27.438Z,98725.36
2022-09-01T02:39:26.544Z,98730.73
2022-09-01T02:42:08.552Z,98732.16
2022-09-01T02:44:41.207Z,98736.03
2022-09-01T02:47:20.168Z,98734.80
2022-09-01T02:50:09.442Z,98737.90
2022-09-01T02:52:44.268Z,98739.65
2022-09-01T02:55:21.040Z,98735.12
2022-09-01T02:57:51.622Z,98734.52
2022-09-01T03:00:29.103Z,98735.98
2022-09-01T03:03:01.308Z,98730.92
2022-09-01T03:06:02.887Z,98731.30
2022-09-01T03:08:47.810Z,98733.48
2022-09-01T03:11:23.535Z,98732.37
2022-09-01T03:13:52.414Z,98730.77
2022-09-01T03:16:36.394Z,98730.86
2022-09-01T03:19:09.711Z,98726.33
2022-09-01T03:21:45.091Z,98721.65
2022-09-01T03:24:19.270Z,98722.70
2022-09-01T03:26:50.866Z,98720.05
2022-09-01T03:29:22.398Z,98724.17
2022-09-01T03:31:53.527Z,98725.88
2022-09-01T03:34:42.909Z,98729.30
2022-09-01T03:37:14.090Z,98727.66
2022-09-01T03:39:42.594Z,98725.27
2022-09-01T03:42:26.040Z,98720.30
2022-09-01T03:45:09.058Z,98723.02
2022-09-01T03:47:52.542Z,98722.10
2022-09-01T03:50:24.545Z,98718.08
2022-09-01T03:53:01.481Z,98715.48
2022-09-01T03:55:52.441Z,98717.49
2022-09-01T03:58:26.564Z,98721.64
2022-09-01T04:01:32.383Z,98725.96
2022-09-01T04:04:23.450Z,98724.89
2022-09-01T04:06:56.876Z,98727.67
2022-09-01T04:09:27.319Z,98730.06
2022-09-01T04:11:58.302Z,98730.69
2022-09-01T04:14:42.330Z,98729.73
2022-09-01T04:17:31.230Z,98722.95
2022-09-01T04:20:15.445Z,98725.80
2022-09-01T04:22:51.312Z,98729.29
2022-09-01T04:25:39.145Z,98730.34
2022-09-01T04:28:23.134Z,98734.00
2022-09-01T04:31:17.890Z,98738.16
2022-09-01T04:34:01.979Z,98745.57
2022-09-01T04:36:34.247Z,98747.80
2022-09-01T04:39:02.289Z,98750.15
2022-09-01T04:41:46.158Z,98751.40
2022-09-01T04:44:27.694Z,98753.70
2022-09-01T04:46:58.449Z,98752.95
2022-09-01T04:50:04.354Z,98751.05
2022-09-01T04:52:35.924Z,98751.51
2022-09-01T04:55:09.181Z,98748.91
2022-09-01T04:57:58.200Z,98744.55
2022-09-01T05:01:46.741Z,98748.09
2022-09-01T05:04:32.679Z,98745.49
2022-09-01T05:07:05.018Z,98744.91
2022-09-01T05:09:38.472Z,98745.39
2022-09-01T05:12:41.514Z,98746.83
2022-09-01T05:15:18.312Z,98746.86
2022-09-01T05:17:49.896Z,98749.58
2022-09-01T05:20:20.646Z,98745.48
2022-09-01T05:23:12.790Z,98746.98
2022-09-01T05:25:42.152Z,98749.83
2022-09-01T05:28:12.853Z,98752.94
2022-09-01T05:30:41.157Z,98752.82
2022-09-01T05:33:21.593Z,98750.61
2022-09-01T05:35:58.104Z,98745.96
2022-09-01T05:38:27.946Z,98751.80
2022-09-01T05:41:11.459Z,98751.96
2022-09-01T05:44:00.815Z,98751.19
2022-09-01T05:46:31.875Z,98755.83
2022-09-01T05:48:59.478Z,98757.90
2022-09-01T05:51:51.148Z,98757.06
2022-09-01T05:54:25.619Z,98756.15
2022-09-01T05:57:04.932Z,98747.51
2022-09-01T05:59:42.257Z,98747.59
2022-09-01T06:02:22.235Z,98751.34
2022-09-01T06:05:00.027Z,98757.52
2022-09-01T06:07:35.868Z,98752.73
2022-09-01T06:10:07.838Z,98752.73
2022-09-01T06:12:40.709Z,98755.11
2022-09-01T06:15:16.476Z,98759.07
2022-09-01T06:17:50.294Z,98761.80
2022-09-01T06:20:27.643Z,98765.42
2022-09-01T06:22:56.187Z,98752.08
2022-09-01T06:25:30.641Z,98748.05
2022-09-01T06:28:08.665Z,98750.82
2022-09-01T06:30:38.756Z,98746.27
2022-09-01T06:33:11.454Z,98747.52
2022-09-01T06:35:47.732Z,98741.23
2022-09-01T06:38:27.394Z,98742.64
2022-09-01T06:41:04.436Z,98742.09
2022-09-01T06:43:48.310Z,98740.99
2022-09-01T06:46:17.830Z,98745.91
2022-09-01T06:48:47.930Z,98746.20
2022-09-01T06:51:20.648Z,98740.81
2022-09-01T06:53:57.134Z,98745.88
2022-09-01T06:56:32.173Z,98742.36
2022-09-01T06:59:04.547Z,98741.30
2022-09-01T07:01:39.223Z,98737.17
2022-09-01T07:04:12.757Z,98736.91
2022-09-01T07:07:00.152Z,98741.48
2022-09-01T07:10:24.653Z,98738.52
2022-09-01T07:13:32.145Z,98743.26
2022-09-01T07:18:59.089Z,98738.84
2022-09-01T07:22:06.801Z,98740.05
2022-09-01T07:24:36.165Z,98742.40
2022-09-01T07:27:41.577Z,98742.83
2022-09-01T07:30:24.017Z,98744.02
2022-09-01T07:32:55.897Z,98741.30
2022-09-01T07:35:24.924Z,98737.08
2022-09-01T07:38:47.258Z,98739.14
2022-09-01T07:44:17.545Z,98745.15
2022-09-01T07:50:40.451Z,98740.18
2022-09-01T07:53:18.604Z,98739.50
2022-09-01T07:55:56.290Z,98741.07
2022-09-01T07:58:28.498Z,98739.20
2022-09-01T08:01:13.531Z,98747.63
2022-09-01T08:03:41.922Z,98745.54
2022-09-01T08:06:13.601Z,98743.58
2022-09-01T08:08:43.843Z,98740.10
2022-09-01T08:11:29.591Z,98742.62
2022-09-01T08:14:12.473Z,98740.84
2022-09-01T08:16:51.578Z,98745.14
2022-09-01T08:19:19.459Z,98740.35
2022-09-01T08:22:21.965Z,98748.45
2022-09-01T08:25:01.780Z,98744.30
2022-09-01T08:27:33.026Z,98743.98
2022-09-01T08:30:10.340Z,98742.02
2022-09-01T08:32:44.187Z,98735.11
2022-09-01T08:35:12.621Z,98729.29
2022-09-01T08:37:43.926Z,98729.08
2022-09-01T08:40:17.523Z,98734.50
2022-09-01T08:43:01.639Z,98738.29
2022-09-01T08:45:56.061Z,98740.94
2022-09-01T08:49:24.315Z,98736.75
2022-09-01T08:51:37.822Z,98734.15
2022-09-01T08:54:35.298Z,98733.77
2022-09-01T08:57:37.574Z,98734.58
2022-09-01T09:00:51.647Z,98738.10
2022-09-01T09:03:46.011Z,98736.05
2022-09-01T09:06:17.127Z,98732.17
2022-09-01T09:09:05.180Z,98731.73
2022-09-01T09:12:00.591Z,98730.27
2022-09-01T09:14:56.205Z,98735.27
2022-09-01T09:17:32.092Z,98729.08
2022-09-01T09:20:12.931Z,98724.60
2022-09-01T09:22:41.484Z,98715.05
2022-09-01T09:25:17.534Z,98714.46
2022-09-01T09:27:48.655Z,98706.19
2022-09-01T09:30:27.146Z,98698.80
2022-09-01T09:35:44.750Z,98693.71
2022-09-01T09:38:29.190Z,98695.38
2022-09-01T09:41:18.733Z,98705.77
2022-09-01T09:44:01.291Z,98705.47
2022-09-01T09:46:36.368Z,98705.23
2022-09-01T09:49:21.644Z,98704.73
2022-09-01T09:52:16.692Z,98697.30
2022-09-01T09:55:30.487Z,98693.26
2022-09-01T09:58:04.255Z,98696.60
2022-09-01T10:00:34.616Z,98700.05
2022-09-01T10:03:12.338Z,98702.37
2022-09-01T10:05:49.042Z,98702.89
2022-09-01T10:08:35.002Z,98703.17
2022-09-01T10:11:50.163Z,98704.41
2022-09-01T10:15:12.785Z,98703.54
2022-09-01T10:22:32.810Z,98711.10
2022-09-01T10:25:56.284Z,98717.02
2022-09-01T10:28:50.954Z,98705.77
2022-09-01T10:31:42.004Z,98711.44
2022-09-01T10:34:25.882Z,98711.59
2022-09-01T10:36:59.959Z,98702.01
2022-09-01T10:39:36.738Z,98692.96
2022-09-01T10:42:19.615Z,98690.27
2022-09-01T10:45:02.075Z,98691.09
2022-09-01T10:47:42.820Z,98690.79
2022-09-01T10:50:35.468Z,98693.89
2022-09-01T10:53:11.492Z,98691.71
2022-09-01T10:56:19.213Z,98686.94
2022-09-01T11:02:23.025Z,98692.22
2022-09-01T11:05:00.412Z,98699.55
2022-09-01T11:08:00.386Z,98700.45
2022-09-01T11:10:40.272Z,98696.89
2022-09-01T11:13:16.964Z,98691.33
2022-09-01T11:16:00.557Z,98692.13
2022-09-01T11:18:35.435Z,98693.52
2022-09-01T11:21:32.107Z,98694.17
2022-09-01T11:25:00.235Z,98694.02
2022-09-01T11:27:52.001Z,98692.75
2022-09-01T11:31:02.413Z,98684.49
2022-09-01T11:34:13.514Z,98684.94
2022-09-01T11:36:51.147Z,98684.54
2022-09-01T11:39:38.952Z,98685.61
2022-09-01T11:42:49.132Z,98685.88
2022-09-01T11:45:28.472Z,98688.74
2022-09-01T11:48:02.254Z,98691.45
2022-09-01T11:50:39.746Z,98692.02
2022-09-01T11:53:16.276Z,98689.91
2022-09-01T11:55:50.613Z,98687.73
2022-09-01T11:58:34.628Z,98691.61
2022-09-01T12:01:14.029Z,98693.89
2022-09-01T12:03:56.634Z,98691.08
2022-09-01T12:07:18.026Z,98692.45
2022-09-01T12:09:51.758Z,98683.92
2022-09-01T12:12:39.077Z,98678.64
2022-09-01T12:15:22.585Z,98674.16
2022-09-01T12:18:22.343Z,98667.17
2022-09-01T12:21:36.591Z,98666.28
2022-09-01T12:24:25.742Z,98667.64
2022-09-01T12:27:18.413Z,98668.84
2022-09-01T12:29:56.774Z,98671.22
2022-09-01T12:32:26.421Z,98679.75
2022-09-01T12:35:02.203Z,98679.55
2022-09-01T12:37:39.074Z,98677.52
2022-09-01T12:40:27.216Z,98680.01
2022-09-01T12:43:06.594Z,98677.48
2022-09-01T12:45:47.812Z,98675.07
2022-09-01T12:48:44.769Z,98670.42
2022-09-01T12:51:30.868Z,98672.67
2022-09-01T12:54:04.865Z,98669.88
2022-09-01T12:56:55.912Z,98669.09
2022-09-01T12:59:37.356Z,98666.64
2022-09-01T13:02:31.303Z,98671.55
2022-09-01T13:05:28.436Z,98672.39
2022-09-01T13:08:03.767Z,98673.56
2022-09-01T13:10:43.197Z,98667.05
2022-09-01T13:13:19.359Z,98665.41
2022-09-01T13:15:50.391Z,98661.03
2022-09-01T13:18:23.540Z,98658.63
2022-09-01T13:20:58.279Z,98653.49
2022-09-01T13:23:28.049Z,98656.39
2022-09-01T13:26:04.822Z,98656.58
2022-09-01T13:28:37.630Z,98662.48
2022-09-01T13:34:23.137Z,98659.08
2022-09-01T13:36:57.352Z,98658.44
2022-09-01T13:39:34.814Z,98661.59
2022-09-01T13:42:02.607Z,98662.02
2022-09-01T13:44:36.678Z,98653.35
2022-09-01T13:47:29.906Z,98652.99
2022-09-01T13:50:19.935Z,98654.48
2022-09-01T13:52:55.039Z,98653.47
2022-09-01T13:55:30.420Z,98657.27
2022-09-01T13:58:07.168Z,98656.61
2022-09-01T14:00:44.787Z,98656.54
2022-09-01T14:03:32.376Z,98657.02
2022-09-01T14:06:05.096Z,98655.42
2022-09-01T14:08:34.110Z,98655.32
2022-09-01T14:11:10.302Z,98661.36
2022-09-01T14:13:40.237Z,98660.26
2022-09-01T14:16:12.118Z,98660.58
2022-09-01T14:18:39.816Z,98659.20
2022-09-01T14:21:11.407Z,98656.99
2022-09-01T14:23:46.330Z,98661.63
2022-09-01T14:26:38.246Z,98663.79
2022-09-01T14:29:12.078Z,98661.38
2022-09-01T14:31:44.257Z,98664.67
2022-09-01T14:34:28.081Z,98660.89
2022-09-01T14:36:59.309Z,98658.70
2022-09-01T14:39:32.834Z,98659.64
2022-09-01T14:42:29.364Z,98661.75
2022-09-01T14:45:22.482Z,98662.41
2022-09-01T14:48:08.187Z,98662.44
2022-09-01T14:50:41.333Z,98663.39
2022-09-01T14:53:13.263Z,98658.71
2022-09-01T14:55:46.637Z,98659.95
2022-09-01T14:58:20.469Z,98656.54
2022-09-01T15:01:03.543Z,98657.48
2022-09-01T15:03:48.318Z,98659.77
2022-09-01T15:06:35.025Z,98661.96
2022-09-01T15:09:05.617Z,98658.85
2022-09-01T15:11:44.127Z,98662.44
2022-09-01T15:14:54.106Z,98662.30
2022-09-01T15:17:40.327Z,98661.64
2022-09-01T15:20:27.653Z,98663.37
2022-09-01T15:22:58.199Z,98664.06
2022-09-01T15:25:27.917Z,98661.95
2022-09-01T15:27:58.530Z,98659.52
2022-09-01T15:30:32.406Z,98655.59
2022-09-01T15:32:59.573Z,98660.70
2022-09-01T15:35:28.621Z,98657.95
2022-09-01T15:37:56.186Z,98663.27
2022-09-01T15:40:23.462Z,98662.78
2022-09-01T15:42:50.864Z,98658.33
2022-09-01T15:45:26.150Z,98666.34
2022-09-01T15:47:53.268Z,98670.11
2022-09-01T15:50:22.570Z,98668.30
2022-09-01T15:53:01.805Z,98674.55
2022-09-01T15:55:31.558Z,98674.98
2022-09-01T15:58:05.266Z,98683.37
2022-09-01T16:00:35.441Z,98679.30
2022-09-01T16:03:07.599Z,98680.05
2022-09-01T16:05:46.169Z,98681.89
2022-09-01T16:08:20.760Z,98679.40
2022-09-01T16:11:15.800Z,98680.55
2022-09-01T16:14:20.826Z,98680.88
2022-09-01T16:17:14.424Z,98683.48
2022-09-01T16:20:11.131Z,98687.30
2022-09-01T16:22:45.421Z,98686.98
2022-09-01T16:25:27.861Z,98686.27
2022-09-01T16:28:01.242Z,98691.24
2022-09-01T16:30:52.518Z,98690.99
2022-09-01T16:33:33.117Z,98690.32
2022-09-01T16:36:08.183Z,98693.05
2022-09-01T16:38:44.002Z,98692.12
2022-09-01T16:41:20.214Z,98695.48
2022-09-01T16:45:01.684Z,98694.08
2022-09-01T16:47:52.263Z,98696.60
2022-09-01T16:51:12.832Z,98704.24
2022-09-01T16:53:58.595Z,98704.75
2022-09-01T16:57:32.689Z,98702.05
2022-09-01T17:00:08.704Z,98707.28
2022-09-01T17:03:03.119Z,98713.02
2022-09-01T17:06:36.722Z,98718.46
2022-09-01T17:09:32.657Z,98723.43
2022-09-01T17:12:27.886Z,98727.90
2022-09-01T17:15:26.679Z,98731.68
2022-09-01T17:18:44.341Z,98735.32
2022-09-01T17:21:37.043Z,98734.82
2022-09-01T17:24:28.114Z,98740.28
2022-09-01T17:27:18.628Z,98741.47
2022-09-01T17:29:53.487Z,98744.63
2022-09-01T17:32:55.552Z,98751.16
2022-09-01T17:36:01.939Z,98748.77
2022-09-01T17:38:39.672Z,98753.98
2022-09-01T17:41:42.270Z,98753.41
2022-09-01T17:45:10.156Z,98758.52
2022-09-01T17:47:47.090Z,98758.92
2022-09-01T17:53:43.027Z,98771.17
2022-09-01T17:56:46.786Z,98774.65
2022-09-01T18:00:28.376Z,98778.13
2022-09-01T18:03:19.214Z,98782.92
2022-09-01T18:06:10.201Z,98784.96
2022-09-01T18:08:43.195Z,98789.14
2022-09-01T18:11:36.240Z,98791.67
2022-09-01T18:14:14.905Z,98794.34
2022-09-01T18:17:05.238Z,98804.00
2022-09-01T18:20:05.904Z,98803.05
2022-09-01T18:22:39.502Z,98811.41
2022-09-01T18:25:43.783Z,98811.71
2022-09-01T18:28:14.114Z,98812.02
2022-09-01T18:31:08.758Z,98813.71
2022-09-01T18:34:14.558Z,98817.13
2022-09-01T18:37:29.946Z,98819.94
2022-09-01T18:40:20.076Z,98819.98
2022-09-01T18:43:16.883Z,98826.70
2022-09-01T18:45:50.390Z,98826.79
2022-09-01T18:49:10.573Z,98834.02
2022-09-01T18:52:21.090Z,98837.24
2022-09-01T18:55:09.045Z,98836.89
2022-09-01T18:57:47.358Z,98836.11
2022-09-01T19:00:19.245Z,98840.85
2022-09-01T19:03:16.177Z,98843.64
2022-09-01T19:06:00.821Z,98841.77
2022-09-01T19:09:01.311Z,98844.75
2022-09-01T19:11:29.361Z,98850.15
2022-09-01T19:14:09.305Z,98847.02
2022-09-01T19:17:03.287Z,98850.59
2022-09-01T19:19:49.787Z,98851.55
2022-09-01T19:22:23.775Z,98859.27
2022-09-01T19:25:16.770Z,98860.48
2022-09-01T19:27:53.665Z,98861.58
2022-09-01T19:30:23.887Z,98867.23
2022-09-01T19:32:51.320Z,98867.42
2022-09-01T19:35:18.424Z,98865.36
2022-09-01T19:37:48.024Z,98870.13
2022-09-01T19:40:18.133Z,98868.36
2022-09-01T19:43:18.202Z,98869.85
2022-09-01T19:46:26.927Z,98870.63
2022-09-01T19:49:09.536Z,98875.96
2022-09-01T19:52:03.930Z,98879.66
2022-09-01T19:54:46.371Z,98882.49
2022-09-01T19:57:51.395Z,98881.81
2022-09-01T20:00:51.399Z,98886.39
2022-09-01T20:03:49.465Z,98889.79
2022-09-01T20:06:35.743Z,98885.99
2022-09-01T20:09:07.721Z,98889.15
2022-09-01T20:11:56.269Z,98888.52
2022-09-01T20:14:51.740Z,98894.59
2022-09-01T20:17:37.574Z,98892.68
2022-09-01T20:20:26.005Z,98896.84
2022-09-01T20:22:59.756Z,98896.50
2022-09-01T20:25:45.875Z,98897.77
2022-09-01T20:28:52.047Z,98899.74
2022-09-01T20:31:40.770Z,98902.16
2022-09-01T20:34:42.806Z,98901.50
2022-09-01T20:37:40.273Z,98905.96
2022-09-01T20:40:32.928Z,98905.17
2022-09-01T20:43:23.990Z,98904.80
2022-09-01T20:45:54.070Z,98901.77
2022-09-01T20:48:36.082Z,98903.96
2022-09-01T20:51:19.192Z,98906.37
2022-09-01T20:54:15.951Z,98904.41
2022-09-01T20:57:02.016Z,98908.05
2022-09-01T20:59:51.273Z,98911.98
2022-09-01T21:02:36.119Z,98913.90
2022-09-01T21:05:34.055Z,98910.52
2022-09-01T21:08:40.645Z,98908.45
2022-09-01T21:11:27.787Z,98908.61
2022-09-01T21:14:14.219Z,98908.73
2022-09-01T21:16:57.080Z,98907.21
2022-09-01T21:19:24.180Z,98906.86
2022-09-01T21:22:09.656Z,98905.89
2022-09-01T21:24:42.255Z,98906.00
2022-09-01T21:27:22.797Z,98904.42
2022-09-01T21:30:01.018Z,98913.83
2022-09-01T21:32:29.481Z,98914.80
2022-09-01T21:34:57.590Z,98912.28
2022-09-01T21:37:25.107Z,98914.17
2022-09-01T21:39:54.273Z,98918.68
2022-09-01T21:43:15.596Z,98922.95
2022-09-01T21:45:46.557Z,98923.58
2022-09-01T21:48:19.985Z,98919.20
2022-09-01T21:50:47.943Z,98923.63
2022-09-01T21:53:34.364Z,98923.52
2022-09-01T21:56:25.830Z,98925.46
2022-09-01T21:59:22.717Z,98919.92
2022-09-01T22:02:14.686Z,98919.30
2022-09-01T22:04:44.747Z,98919.91
2022-09-01T22:07:24.287Z,98923.91
2022-09-01T22:09:54.712Z,98925.53
2022-09-01T22:12:25.355Z,98925.45
2022-09-01T22:15:09.366Z,98922.15
2022-09-01T22:18:01.121Z,98923.02
2022-09-01T22:20:37.554Z,98926.73
2022-09-01T22:23:08.635Z,98927.00
2022-09-01T22:25:43.600Z,98925.44
2022-09-01T22:28:18.600Z,98925.25
2022-09-01T22:30:46.857Z,98927.86
2022-09-01T22:33:14.447Z,98928.96
2022-09-01T22:35:46.194Z,98926.61
2022-09-01T22:38:14.062Z,98925.67
2022-09-01T22:41:09.896Z,98927.18
2022-09-01T22:43:42.428Z,98927.39
2022-09-01T22:46:10.193Z,98925.10
2022-09-01T22:48:47.816Z,98927.05
2022-09-01T22:51:15.087Z,98930.16
2022-09-01T22:53:43.078Z,98931.50
2022-09-01T22:56:20.502Z,98930.41
2022-09-01T22:59:03.251Z,98930.21
2022-09-01T23:01:36.189Z,98936.48
2022-09-01T23:04:06.908Z,98939.87
2022-09-01T23:06:46.222Z,98942.52
2022-09-01T23:09:14.396Z,98942.05
2022-09-01T23:11:45.012Z,98941.25
2022-09-01T23:14:12.774Z,98941.95
2022-09-01T23:17:02.762Z,98942.03
2022-09-01T23:19:32.658Z,98943.98
2022-09-01T23:22:00.339Z,98941.34
2022-09-01T23:24:37.540Z,98943.40
2022-09-01T23:27:05.362Z,98939.66
2022-09-01T23:29:53.011Z,98941.06
2022-09-01T23:32:23.350Z,98942.60
2022-09-01T23:34:55.299Z,98946.10
2022-09-01T23:37:22.983Z,98944.11
2022-09-01T23:39:50.432Z,98938.96
2022-09-01T23:42:18.074Z,98942.98
2022-09-01T23:44:48.617Z,98942.34
2022-09-01T23:47:22.426Z,98938.92
2022-09-01T23:49:49.660Z,98939.52
2022-09-01T23:52:23.295Z,98939.55
2022-09-01T23:55:13.798Z,98940.66
2022-09-01T23:57:44.611Z,98939.18
